sensor_id;sensor_type;location;lat;lon;timestamp;P1;durP1;ratioP1;P2;durP2;ratioP2
36457;SDS011;22480;50.546;12.292;2022-07-06T00:01:21;1.48;;;1.20;;
36457;SDS011;22480;50.546;12.292;2022-07-06T00:03:46;6.30;;;1.15;;
36457;SDS011;22480;50.546;12.292;2022-07-06T00:06:12;4.40;;;1.02;;
36457;SDS011;22480;50.546;12.292;2022-07-06T00:08:38;2.55;;;1.35;;
36457;SDS011;22480;50.546;12.292;2022-07-06T00:11:04;2.13;;;1.00;;
36457;SDS011;22480;50.546;12.292;2022-07-06T00:13:30;2.88;;;1.33;;
36457;SDS011;22480;50.546;12.292;2022-07-06T00:15:56;4.07;;;1.15;;
36457;SDS011;22480;50.546;12.292;2022-07-06T00:18:22;2.45;;;1.27;;
36457;SDS011;22480;50.546;12.292;2022-07-06T00:20:48;1.50;;;1.05;;
36457;SDS011;22480;50.546;12.292;2022-07-06T00:23:13;3.13;;;1.70;;
36457;SDS011;22480;50.546;12.292;2022-07-06T00:25:39;3.35;;;1.10;;
36457;SDS011;22480;50.546;12.292;2022-07-06T00:28:05;4.82;;;1.42;;
36457;SDS011;22480;50.546;12.292;2022-07-06T00:30:31;2.40;;;1.20;;
36457;SDS011;22480;50.546;12.292;2022-07-06T00:32:56;6.88;;;1.20;;
36457;SDS011;22480;50.546;12.292;2022-07-06T00:35:26;3.65;;;0.93;;
36457;SDS011;22480;50.546;12.292;2022-07-06T00:37:52;4.13;;;1.13;;
36457;SDS011;22480;50.546;12.292;2022-07-06T00:40:18;4.80;;;1.30;;
36457;SDS011;22480;50.546;12.292;2022-07-06T00:42:45;2.65;;;1.13;;
36457;SDS011;22480;50.546;12.292;2022-07-06T00:45:12;2.78;;;1.17;;
36457;SDS011;22480;50.546;12.292;2022-07-06T00:47:39;1.45;;;1.33;;
36457;SDS011;22480;50.546;12.292;2022-07-06T00:50:07;3.40;;;1.15;;
36457;SDS011;22480;50.546;12.292;2022-07-06T00:52:41;2.90;;;1.63;;
36457;SDS011;22480;50.546;12.292;2022-07-06T00:55:08;3.60;;;2.03;;
36457;SDS011;22480;50.546;12.292;2022-07-06T00:57:35;3.78;;;1.30;;
36457;SDS011;22480;50.546;12.292;2022-07-06T01:00:02;2.67;;;1.55;;
36457;SDS011;22480;50.546;12.292;2022-07-06T01:02:32;7.05;;;2.55;;
36457;SDS011;22480;50.546;12.292;2022-07-06T01:04:59;4.40;;;2.90;;
36457;SDS011;22480;50.546;12.292;2022-07-06T01:07:25;4.35;;;3.28;;
36457;SDS011;22480;50.546;12.292;2022-07-06T01:09:53;6.68;;;3.53;;
36457;SDS011;22480;50.546;12.292;2022-07-06T01:12:19;4.55;;;3.70;;
36457;SDS011;22480;50.546;12.292;2022-07-06T01:14:45;6.55;;;4.20;;
36457;SDS011;22480;50.546;12.292;2022-07-06T01:17:11;4.15;;;3.45;;
36457;SDS011;22480;50.546;12.292;2022-07-06T01:19:38;6.85;;;4.20;;
36457;SDS011;22480;50.546;12.292;2022-07-06T01:22:04;7.88;;;5.13;;
36457;SDS011;22480;50.546;12.292;2022-07-06T01:24:30;6.82;;;4.50;;
36457;SDS011;22480;50.546;12.292;2022-07-06T01:26:56;6.28;;;4.40;;
36457;SDS011;22480;50.546;12.292;2022-07-06T01:29:22;6.57;;;5.35;;
36457;SDS011;22480;50.546;12.292;2022-07-06T01:31:48;5.15;;;4.65;;
36457;SDS011;22480;50.546;12.292;2022-07-06T01:34:18;11.23;;;5.03;;
36457;SDS011;22480;50.546;12.292;2022-07-06T01:36:44;3.95;;;3.55;;
36457;SDS011;22480;50.546;12.292;2022-07-06T01:39:11;3.55;;;3.25;;
36457;SDS011;22480;50.546;12.292;2022-07-06T01:41:36;3.38;;;3.08;;
36457;SDS011;22480;50.546;12.292;2022-07-06T01:44:03;16.95;;;6.03;;
36457;SDS011;22480;50.546;12.292;2022-07-06T01:46:29;10.73;;;6.35;;
36457;SDS011;22480;50.546;12.292;2022-07-06T01:48:55;7.90;;;5.82;;
36457;SDS011;22480;50.546;12.292;2022-07-06T01:51:22;14.40;;;8.90;;
36457;SDS011;22480;50.546;12.292;2022-07-06T01:53:48;15.73;;;10.48;;
36457;SDS011;22480;50.546;12.292;2022-07-06T01:56:17;12.52;;;9.13;;
36457;SDS011;22480;50.546;12.292;2022-07-06T01:58:50;9.93;;;7.50;;
36457;SDS011;22480;50.546;12.292;2022-07-06T02:01:17;12.95;;;8.18;;
36457;SDS011;22480;50.546;12.292;2022-07-06T02:03:44;11.30;;;8.65;;
36457;SDS011;22480;50.546;12.292;2022-07-06T02:06:10;11.02;;;9.15;;
36457;SDS011;22480;50.546;12.292;2022-07-06T02:08:37;16.30;;;9.88;;
36457;SDS011;22480;50.546;12.292;2022-07-06T02:11:05;9.02;;;8.05;;
36457;SDS011;22480;50.546;12.292;2022-07-06T02:13:33;12.70;;;9.18;;
36457;SDS011;22480;50.546;12.292;2022-07-06T02:16:00;16.98;;;10.85;;
36457;SDS011;22480;50.546;12.292;2022-07-06T02:18:26;14.70;;;10.30;;
36457;SDS011;22480;50.546;12.292;2022-07-06T02:20:52;12.93;;;9.27;;
36457;SDS011;22480;50.546;12.292;2022-07-06T02:23:17;10.98;;;8.45;;
36457;SDS011;22480;50.546;12.292;2022-07-06T02:25:44;9.07;;;7.80;;
36457;SDS011;22480;50.546;12.292;2022-07-06T02:28:10;8.35;;;7.45;;
36457;SDS011;22480;50.546;12.292;2022-07-06T02:30:36;9.70;;;7.72;;
36457;SDS011;22480;50.546;12.292;2022-07-06T02:33:02;11.52;;;8.60;;
36457;SDS011;22480;50.546;12.292;2022-07-06T02:35:29;10.18;;;9.05;;
36457;SDS011;22480;50.546;12.292;2022-07-06T02:37:55;11.90;;;9.55;;
36457;SDS011;22480;50.546;12.292;2022-07-06T02:40:20;14.18;;;10.90;;
36457;SDS011;22480;50.546;12.292;2022-07-06T02:42:47;17.60;;;13.18;;
36457;SDS011;22480;50.546;12.292;2022-07-06T02:45:12;17.42;;;13.65;;
36457;SDS011;22480;50.546;12.292;2022-07-06T02:47:39;26.25;;;17.00;;
36457;SDS011;22480;50.546;12.292;2022-07-06T02:50:05;26.83;;;17.83;;
36457;SDS011;22480;50.546;12.292;2022-07-06T02:52:31;31.17;;;22.10;;
36457;SDS011;22480;50.546;12.292;2022-07-06T02:54:58;24.17;;;17.85;;
36457;SDS011;22480;50.546;12.292;2022-07-06T02:57:25;36.60;;;23.13;;
36457;SDS011;22480;50.546;12.292;2022-07-06T02:59:51;51.25;;;28.25;;
36457;SDS011;22480;50.546;12.292;2022-07-06T03:02:17;46.42;;;29.08;;
36457;SDS011;22480;50.546;12.292;2022-07-06T03:04:44;37.40;;;24.33;;
36457;SDS011;22480;50.546;12.292;2022-07-06T03:07:10;35.30;;;23.75;;
36457;SDS011;22480;50.546;12.292;2022-07-06T03:09:35;32.35;;;22.85;;
36457;SDS011;22480;50.546;12.292;2022-07-06T03:12:01;29.15;;;20.65;;
36457;SDS011;22480;50.546;12.292;2022-07-06T03:14:30;30.52;;;21.30;;
36457;SDS011;22480;50.546;12.292;2022-07-06T03:16:55;27.38;;;20.05;;
36457;SDS011;22480;50.546;12.292;2022-07-06T03:19:21;27.70;;;19.00;;
36457;SDS011;22480;50.546;12.292;2022-07-06T03:21:48;28.67;;;19.52;;
36457;SDS011;22480;50.546;12.292;2022-07-06T03:24:13;26.55;;;19.20;;
36457;SDS011;22480;50.546;12.292;2022-07-06T03:26:39;29.65;;;20.60;;
36457;SDS011;22480;50.546;12.292;2022-07-06T03:29:05;32.47;;;23.13;;
36457;SDS011;22480;50.546;12.292;2022-07-06T03:31:31;31.45;;;21.85;;
36457;SDS011;22480;50.546;12.292;2022-07-06T03:33:57;31.70;;;23.38;;
36457;SDS011;22480;50.546;12.292;2022-07-06T03:36:23;35.35;;;23.88;;
36457;SDS011;22480;50.546;12.292;2022-07-06T03:38:48;30.55;;;24.30;;
36457;SDS011;22480;50.546;12.292;2022-07-06T03:41:15;36.70;;;26.30;;
36457;SDS011;22480;50.546;12.292;2022-07-06T03:43:41;35.15;;;26.80;;
36457;SDS011;22480;50.546;12.292;2022-07-06T03:46:07;41.03;;;28.70;;
36457;SDS011;22480;50.546;12.292;2022-07-06T03:48:33;29.98;;;23.80;;
36457;SDS011;22480;50.546;12.292;2022-07-06T03:51:00;33.65;;;26.45;;
36457;SDS011;22480;50.546;12.292;2022-07-06T03:53:26;38.05;;;25.77;;
36457;SDS011;22480;50.546;12.292;2022-07-06T03:55:52;37.92;;;26.17;;
36457;SDS011;22480;50.546;12.292;2022-07-06T03:58:37;38.20;;;26.08;;
36457;SDS011;22480;50.546;12.292;2022-07-06T04:01:03;35.50;;;25.77;;
36457;SDS011;22480;50.546;12.292;2022-07-06T04:03:29;31.42;;;23.33;;
36457;SDS011;22480;50.546;12.292;2022-07-06T04:05:55;28.05;;;21.88;;
36457;SDS011;22480;50.546;12.292;2022-07-06T04:08:20;22.27;;;19.48;;
36457;SDS011;22480;50.546;12.292;2022-07-06T04:10:52;29.27;;;22.33;;
36457;SDS011;22480;50.546;12.292;2022-07-06T04:13:17;22.95;;;19.40;;
36457;SDS011;22480;50.546;12.292;2022-07-06T04:15:43;26.67;;;18.35;;
36457;SDS011;22480;50.546;12.292;2022-07-06T04:18:09;17.42;;;14.52;;
36457;SDS011;22480;50.546;12.292;2022-07-06T04:20:41;17.45;;;15.48;;
36457;SDS011;22480;50.546;12.292;2022-07-06T04:23:07;19.25;;;15.98;;
36457;SDS011;22480;50.546;12.292;2022-07-06T04:25:33;15.70;;;11.93;;
36457;SDS011;22480;50.546;12.292;2022-07-06T04:28:01;17.55;;;13.13;;
36457;SDS011;22480;50.546;12.292;2022-07-06T04:30:28;18.13;;;13.75;;
36457;SDS011;22480;50.546;12.292;2022-07-06T04:32:54;13.85;;;11.52;;
36457;SDS011;22480;50.546;12.292;2022-07-06T04:35:22;13.18;;;10.45;;
36457;SDS011;22480;50.546;12.292;2022-07-06T04:37:50;11.75;;;10.45;;
36457;SDS011;22480;50.546;12.292;2022-07-06T04:40:18;10.18;;;8.82;;
36457;SDS011;22480;50.546;12.292;2022-07-06T04:42:46;13.32;;;10.18;;
36457;SDS011;22480;50.546;12.292;2022-07-06T04:45:12;11.73;;;8.07;;
36457;SDS011;22480;50.546;12.292;2022-07-06T04:47:38;9.98;;;7.40;;
36457;SDS011;22480;50.546;12.292;2022-07-06T04:50:04;9.40;;;5.97;;
36457;SDS011;22480;50.546;12.292;2022-07-06T04:52:31;7.15;;;4.68;;
36457;SDS011;22480;50.546;12.292;2022-07-06T04:54:57;8.77;;;4.00;;
36457;SDS011;22480;50.546;12.292;2022-07-06T04:57:23;3.90;;;3.17;;
36457;SDS011;22480;50.546;12.292;2022-07-06T04:59:52;5.90;;;3.30;;
36457;SDS011;22480;50.546;12.292;2022-07-06T05:02:18;3.15;;;2.42;;
36457;SDS011;22480;50.546;12.292;2022-07-06T05:04:44;5.75;;;2.58;;
36457;SDS011;22480;50.546;12.292;2022-07-06T05:07:10;3.25;;;2.70;;
36457;SDS011;22480;50.546;12.292;2022-07-06T05:09:36;3.55;;;2.40;;
36457;SDS011;22480;50.546;12.292;2022-07-06T05:12:02;5.70;;;2.67;;
36457;SDS011;22480;50.546;12.292;2022-07-06T05:14:28;3.80;;;2.35;;
36457;SDS011;22480;50.546;12.292;2022-07-06T05:16:55;3.67;;;2.47;;
36457;SDS011;22480;50.546;12.292;2022-07-06T05:19:22;3.85;;;2.45;;
36457;SDS011;22480;50.546;12.292;2022-07-06T05:21:48;4.60;;;1.92;;
36457;SDS011;22480;50.546;12.292;2022-07-06T05:24:14;4.90;;;2.25;;
36457;SDS011;22480;50.546;12.292;2022-07-06T05:26:41;5.22;;;2.88;;
36457;SDS011;22480;50.546;12.292;2022-07-06T05:29:07;4.88;;;1.95;;
36457;SDS011;22480;50.546;12.292;2022-07-06T05:31:33;4.65;;;2.42;;
36457;SDS011;22480;50.546;12.292;2022-07-06T05:33:58;8.43;;;2.25;;
36457;SDS011;22480;50.546;12.292;2022-07-06T05:36:24;4.70;;;1.80;;
36457;SDS011;22480;50.546;12.292;2022-07-06T05:38:50;4.75;;;2.10;;
36457;SDS011;22480;50.546;12.292;2022-07-06T05:41:16;14.75;;;3.05;;
36457;SDS011;22480;50.546;12.292;2022-07-06T05:43:42;4.97;;;2.22;;
36457;SDS011;22480;50.546;12.292;2022-07-06T05:46:08;3.97;;;2.00;;
36457;SDS011;22480;50.546;12.292;2022-07-06T05:48:35;6.85;;;2.58;;
36457;SDS011;22480;50.546;12.292;2022-07-06T05:51:19;6.43;;;2.20;;
36457;SDS011;22480;50.546;12.292;2022-07-06T05:53:46;6.32;;;1.92;;
36457;SDS011;22480;50.546;12.292;2022-07-06T05:56:13;4.22;;;1.90;;
36457;SDS011;22480;50.546;12.292;2022-07-06T05:58:39;3.47;;;2.00;;
36457;SDS011;22480;50.546;12.292;2022-07-06T06:01:05;4.65;;;2.20;;
36457;SDS011;22480;50.546;12.292;2022-07-06T06:03:34;4.05;;;2.47;;
36457;SDS011;22480;50.546;12.292;2022-07-06T06:06:01;4.55;;;1.95;;
36457;SDS011;22480;50.546;12.292;2022-07-06T06:08:28;5.38;;;1.85;;
36457;SDS011;22480;50.546;12.292;2022-07-06T06:10:54;4.68;;;1.70;;
36457;SDS011;22480;50.546;12.292;2022-07-06T06:13:22;2.60;;;2.08;;
36457;SDS011;22480;50.546;12.292;2022-07-06T06:15:48;4.03;;;1.60;;
36457;SDS011;22480;50.546;12.292;2022-07-06T06:18:14;4.07;;;1.58;;
36457;SDS011;22480;50.546;12.292;2022-07-06T06:20:44;5.03;;;1.50;;
36457;SDS011;22480;50.546;12.292;2022-07-06T06:23:10;4.45;;;1.52;;
36457;SDS011;22480;50.546;12.292;2022-07-06T06:25:37;3.30;;;1.52;;
36457;SDS011;22480;50.546;12.292;2022-07-06T06:28:05;3.80;;;1.50;;
36457;SDS011;22480;50.546;12.292;2022-07-06T06:30:32;3.85;;;1.60;;
36457;SDS011;22480;50.546;12.292;2022-07-06T06:33:11;4.40;;;1.58;;
36457;SDS011;22480;50.546;12.292;2022-07-06T06:35:41;3.35;;;1.70;;
36457;SDS011;22480;50.546;12.292;2022-07-06T06:38:08;4.55;;;1.45;;
36457;SDS011;22480;50.546;12.292;2022-07-06T06:40:34;7.30;;;1.83;;
36457;SDS011;22480;50.546;12.292;2022-07-06T06:43:00;7.05;;;2.20;;
36457;SDS011;22480;50.546;12.292;2022-07-06T06:45:27;5.18;;;1.63;;
36457;SDS011;22480;50.546;12.292;2022-07-06T06:47:53;5.90;;;1.35;;
36457;SDS011;22480;50.546;12.292;2022-07-06T06:50:19;4.07;;;1.27;;
36457;SDS011;22480;50.546;12.292;2022-07-06T06:52:45;3.58;;;1.60;;
36457;SDS011;22480;50.546;12.292;2022-07-06T06:55:10;3.47;;;1.50;;
36457;SDS011;22480;50.546;12.292;2022-07-06T06:57:36;5.45;;;1.33;;
36457;SDS011;22480;50.546;12.292;2022-07-06T07:00:03;6.65;;;1.30;;
36457;SDS011;22480;50.546;12.292;2022-07-06T07:02:29;4.35;;;1.50;;
36457;SDS011;22480;50.546;12.292;2022-07-06T07:04:55;4.38;;;1.50;;
36457;SDS011;22480;50.546;12.292;2022-07-06T07:07:20;6.03;;;1.48;;
36457;SDS011;22480;50.546;12.292;2022-07-06T07:09:46;5.47;;;1.73;;
36457;SDS011;22480;50.546;12.292;2022-07-06T07:12:12;4.88;;;1.60;;
36457;SDS011;22480;50.546;12.292;2022-07-06T07:14:40;4.47;;;1.35;;
36457;SDS011;22480;50.546;12.292;2022-07-06T07:17:06;2.95;;;1.13;;
36457;SDS011;22480;50.546;12.292;2022-07-06T07:19:32;3.78;;;1.20;;
36457;SDS011;22480;50.546;12.292;2022-07-06T07:21:57;6.00;;;1.90;;
36457;SDS011;22480;50.546;12.292;2022-07-06T07:24:23;7.18;;;2.00;;
36457;SDS011;22480;50.546;12.292;2022-07-06T07:26:49;2.70;;;1.33;;
36457;SDS011;22480;50.546;12.292;2022-07-06T07:29:14;6.60;;;1.73;;
36457;SDS011;22480;50.546;12.292;2022-07-06T07:31:40;4.43;;;1.50;;
36457;SDS011;22480;50.546;12.292;2022-07-06T07:34:06;6.03;;;1.20;;
36457;SDS011;22480;50.546;12.292;2022-07-06T07:36:32;7.60;;;1.85;;
36457;SDS011;22480;50.546;12.292;2022-07-06T07:38:58;5.22;;;1.50;;
36457;SDS011;22480;50.546;12.292;2022-07-06T07:41:23;6.90;;;1.63;;
36457;SDS011;22480;50.546;12.292;2022-07-06T07:43:49;2.17;;;1.42;;
36457;SDS011;22480;50.546;12.292;2022-07-06T07:46:15;3.30;;;1.17;;
36457;SDS011;22480;50.546;12.292;2022-07-06T07:48:41;6.00;;;1.80;;
36457;SDS011;22480;50.546;12.292;2022-07-06T07:51:07;4.28;;;1.30;;
36457;SDS011;22480;50.546;12.292;2022-07-06T07:53:33;4.55;;;1.77;;
36457;SDS011;22480;50.546;12.292;2022-07-06T07:55:58;4.13;;;1.60;;
36457;SDS011;22480;50.546;12.292;2022-07-06T07:58:24;3.45;;;1.33;;
36457;SDS011;22480;50.546;12.292;2022-07-06T08:00:51;2.80;;;1.40;;
36457;SDS011;22480;50.546;12.292;2022-07-06T08:03:16;3.30;;;1.38;;
36457;SDS011;22480;50.546;12.292;2022-07-06T08:05:42;4.80;;;1.60;;
36457;SDS011;22480;50.546;12.292;2022-07-06T08:08:07;5.03;;;1.88;;
36457;SDS011;22480;50.546;12.292;2022-07-06T08:10:33;4.72;;;2.15;;
36457;SDS011;22480;50.546;12.292;2022-07-06T08:12:59;2.97;;;1.35;;
36457;SDS011;22480;50.546;12.292;2022-07-06T08:15:25;6.45;;;1.48;;
36457;SDS011;22480;50.546;12.292;2022-07-06T08:17:50;3.60;;;1.50;;
36457;SDS011;22480;50.546;12.292;2022-07-06T08:20:16;4.75;;;1.75;;
36457;SDS011;22480;50.546;12.292;2022-07-06T08:22:42;3.88;;;1.73;;
36457;SDS011;22480;50.546;12.292;2022-07-06T08:25:08;3.17;;;1.50;;
36457;SDS011;22480;50.546;12.292;2022-07-06T08:27:34;3.47;;;1.63;;
36457;SDS011;22480;50.546;12.292;2022-07-06T08:30:00;5.32;;;1.63;;
36457;SDS011;22480;50.546;12.292;2022-07-06T08:32:27;4.13;;;1.75;;
36457;SDS011;22480;50.546;12.292;2022-07-06T08:34:53;5.65;;;2.28;;
36457;SDS011;22480;50.546;12.292;2022-07-06T08:37:19;2.83;;;1.10;;
36457;SDS011;22480;50.546;12.292;2022-07-06T08:39:45;3.08;;;1.30;;
36457;SDS011;22480;50.546;12.292;2022-07-06T08:42:10;3.47;;;1.40;;
36457;SDS011;22480;50.546;12.292;2022-07-06T08:44:37;10.50;;;1.88;;
36457;SDS011;22480;50.546;12.292;2022-07-06T08:47:06;5.45;;;1.25;;
36457;SDS011;22480;50.546;12.292;2022-07-06T08:49:34;2.63;;;1.40;;
36457;SDS011;22480;50.546;12.292;2022-07-06T08:52:02;2.67;;;1.42;;
36457;SDS011;22480;50.546;12.292;2022-07-06T08:54:29;1.63;;;1.15;;
36457;SDS011;22480;50.546;12.292;2022-07-06T08:56:55;2.20;;;1.70;;
36457;SDS011;22480;50.546;12.292;2022-07-06T08:59:21;4.32;;;1.40;;
36457;SDS011;22480;50.546;12.292;2022-07-06T09:01:46;3.58;;;1.70;;
36457;SDS011;22480;50.546;12.292;2022-07-06T09:04:15;4.65;;;1.80;;
36457;SDS011;22480;50.546;12.292;2022-07-06T09:06:42;4.75;;;1.30;;
36457;SDS011;22480;50.546;12.292;2022-07-06T09:09:10;3.78;;;1.60;;
36457;SDS011;22480;50.546;12.292;2022-07-06T09:11:42;2.28;;;1.50;;
36457;SDS011;22480;50.546;12.292;2022-07-06T09:14:07;6.40;;;1.67;;
36457;SDS011;22480;50.546;12.292;2022-07-06T09:16:34;2.60;;;1.40;;
36457;SDS011;22480;50.546;12.292;2022-07-06T09:19:00;6.97;;;1.85;;
36457;SDS011;22480;50.546;12.292;2022-07-06T09:21:27;2.63;;;1.67;;
36457;SDS011;22480;50.546;12.292;2022-07-06T09:23:58;4.97;;;1.67;;
36457;SDS011;22480;50.546;12.292;2022-07-06T09:26:30;5.60;;;1.40;;
36457;SDS011;22480;50.546;12.292;2022-07-06T09:28:56;5.35;;;2.05;;
36457;SDS011;22480;50.546;12.292;2022-07-06T09:31:22;7.20;;;1.60;;
36457;SDS011;22480;50.546;12.292;2022-07-06T09:39:21;4.97;;;1.30;;
36457;SDS011;22480;50.546;12.292;2022-07-06T09:41:50;4.57;;;1.58;;
36457;SDS011;22480;50.546;12.292;2022-07-06T09:44:23;4.70;;;1.00;;
36457;SDS011;22480;50.546;12.292;2022-07-06T09:46:55;5.43;;;1.10;;
36457;SDS011;22480;50.546;12.292;2022-07-06T09:49:22;3.60;;;1.10;;
36457;SDS011;22480;50.546;12.292;2022-07-06T09:51:49;7.30;;;1.20;;
36457;SDS011;22480;50.546;12.292;2022-07-06T09:54:17;4.85;;;1.13;;
36457;SDS011;22480;50.546;12.292;2022-07-06T09:56:43;6.97;;;2.20;;
36457;SDS011;22480;50.546;12.292;2022-07-06T09:59:15;7.20;;;1.85;;
36457;SDS011;22480;50.546;12.292;2022-07-06T10:01:42;3.58;;;1.48;;
36457;SDS011;22480;50.546;12.292;2022-07-06T10:04:09;4.75;;;1.75;;
36457;SDS011;22480;50.546;12.292;2022-07-06T10:06:37;5.20;;;1.15;;
36457;SDS011;22480;50.546;12.292;2022-07-06T10:09:05;3.97;;;1.30;;
36457;SDS011;22480;50.546;12.292;2022-07-06T10:11:32;3.50;;;1.42;;
36457;SDS011;22480;50.546;12.292;2022-07-06T10:14:01;5.10;;;1.67;;
36457;SDS011;22480;50.546;12.292;2022-07-06T10:16:28;4.75;;;1.55;;
36457;SDS011;22480;50.546;12.292;2022-07-06T10:18:54;3.65;;;1.38;;
36457;SDS011;22480;50.546;12.292;2022-07-06T10:21:23;4.18;;;1.60;;
36457;SDS011;22480;50.546;12.292;2022-07-06T10:23:50;6.80;;;1.75;;
36457;SDS011;22480;50.546;12.292;2022-07-06T10:26:17;4.03;;;1.15;;
36457;SDS011;22480;50.546;12.292;2022-07-06T10:28:43;5.50;;;1.42;;
36457;SDS011;22480;50.546;12.292;2022-07-06T10:31:11;3.30;;;1.10;;
36457;SDS011;22480;50.546;12.292;2022-07-06T10:33:38;1.98;;;1.10;;
36457;SDS011;22480;50.546;12.292;2022-07-06T10:36:05;2.25;;;0.90;;
36457;SDS011;22480;50.546;12.292;2022-07-06T10:38:32;3.95;;;1.48;;
36457;SDS011;22480;50.546;12.292;2022-07-06T10:41:06;7.35;;;1.45;;
36457;SDS011;22480;50.546;12.292;2022-07-06T10:46:10;2.65;;;1.33;;
36457;SDS011;22480;50.546;12.292;2022-07-06T10:48:39;2.97;;;1.42;;
36457;SDS011;22480;50.546;12.292;2022-07-06T10:51:07;5.00;;;1.30;;
36457;SDS011;22480;50.546;12.292;2022-07-06T10:53:36;4.60;;;1.50;;
36457;SDS011;22480;50.546;12.292;2022-07-06T10:56:05;4.07;;;1.55;;
36457;SDS011;22480;50.546;12.292;2022-07-06T10:58:37;4.75;;;1.65;;
36457;SDS011;22480;50.546;12.292;2022-07-06T11:01:04;2.55;;;1.48;;
36457;SDS011;22480;50.546;12.292;2022-07-06T11:03:38;4.45;;;1.60;;
36457;SDS011;22480;50.546;12.292;2022-07-06T11:08:46;3.38;;;1.35;;
36457;SDS011;22480;50.546;12.292;2022-07-06T11:11:37;3.80;;;1.73;;
36457;SDS011;22480;50.546;12.292;2022-07-06T11:14:10;5.40;;;2.08;;
36457;SDS011;22480;50.546;12.292;2022-07-06T11:16:37;5.22;;;2.13;;
36457;SDS011;22480;50.546;12.292;2022-07-06T11:19:15;4.72;;;1.60;;
36457;SDS011;22480;50.546;12.292;2022-07-06T11:21:46;3.90;;;1.15;;
36457;SDS011;22480;50.546;12.292;2022-07-06T11:24:17;4.45;;;1.25;;
36457;SDS011;22480;50.546;12.292;2022-07-06T11:26:48;5.43;;;1.35;;
36457;SDS011;22480;50.546;12.292;2022-07-06T11:29:15;5.30;;;1.40;;
36457;SDS011;22480;50.546;12.292;2022-07-06T11:31:44;3.88;;;1.23;;
36457;SDS011;22480;50.546;12.292;2022-07-06T11:34:11;3.90;;;1.50;;
36457;SDS011;22480;50.546;12.292;2022-07-06T11:36:41;3.20;;;1.33;;
36457;SDS011;22480;50.546;12.292;2022-07-06T11:39:07;4.32;;;1.40;;
36457;SDS011;22480;50.546;12.292;2022-07-06T11:41:33;6.90;;;1.33;;
36457;SDS011;22480;50.546;12.292;2022-07-06T11:43:59;5.93;;;1.25;;
36457;SDS011;22480;50.546;12.292;2022-07-06T11:46:26;5.53;;;1.50;;
36457;SDS011;22480;50.546;12.292;2022-07-06T11:48:58;3.03;;;1.10;;
36457;SDS011;22480;50.546;12.292;2022-07-06T11:51:29;3.90;;;1.20;;
36457;SDS011;22480;50.546;12.292;2022-07-06T11:53:58;2.25;;;1.13;;
36457;SDS011;22480;50.546;12.292;2022-07-06T11:56:30;4.55;;;0.98;;
36457;SDS011;22480;50.546;12.292;2022-07-06T11:58:56;4.35;;;1.02;;
36457;SDS011;22480;50.546;12.292;2022-07-06T12:01:24;3.42;;;0.90;;
36457;SDS011;22480;50.546;12.292;2022-07-06T12:03:52;4.57;;;1.10;;
36457;SDS011;22480;50.546;12.292;2022-07-06T12:06:21;1.38;;;1.08;;
36457;SDS011;22480;50.546;12.292;2022-07-06T12:08:50;2.20;;;1.10;;
36457;SDS011;22480;50.546;12.292;2022-07-06T12:11:21;4.07;;;1.23;;
36457;SDS011;22480;50.546;12.292;2022-07-06T12:13:55;2.65;;;1.00;;
36457;SDS011;22480;50.546;12.292;2022-07-06T12:16:35;3.75;;;1.10;;
36457;SDS011;22480;50.546;12.292;2022-07-06T12:19:02;2.17;;;0.90;;
36457;SDS011;22480;50.546;12.292;2022-07-06T12:21:29;4.28;;;1.00;;
36457;SDS011;22480;50.546;12.292;2022-07-06T12:23:55;5.32;;;1.08;;
36457;SDS011;22480;50.546;12.292;2022-07-06T12:26:22;2.40;;;1.05;;
36457;SDS011;22480;50.546;12.292;2022-07-06T12:34:14;3.38;;;0.90;;
36457;SDS011;22480;50.546;12.292;2022-07-06T12:36:51;3.45;;;1.40;;
36457;SDS011;22480;50.546;12.292;2022-07-06T12:39:22;4.15;;;1.00;;
36457;SDS011;22480;50.546;12.292;2022-07-06T12:41:56;3.55;;;1.30;;
36457;SDS011;22480;50.546;12.292;2022-07-06T12:44:29;4.13;;;1.20;;
36457;SDS011;22480;50.546;12.292;2022-07-06T12:49:32;3.25;;;1.15;;
36457;SDS011;22480;50.546;12.292;2022-07-06T12:51:59;2.95;;;1.00;;
36457;SDS011;22480;50.546;12.292;2022-07-06T12:54:41;3.05;;;1.00;;
36457;SDS011;22480;50.546;12.292;2022-07-06T12:57:10;2.72;;;0.90;;
36457;SDS011;22480;50.546;12.292;2022-07-06T13:02:17;3.83;;;0.77;;
36457;SDS011;22480;50.546;12.292;2022-07-06T13:04:54;3.25;;;1.13;;
36457;SDS011;22480;50.546;12.292;2022-07-06T13:07:21;2.33;;;1.05;;
36457;SDS011;22480;50.546;12.292;2022-07-06T13:09:47;3.03;;;1.10;;
36457;SDS011;22480;50.546;12.292;2022-07-06T13:12:13;2.97;;;1.30;;
36457;SDS011;22480;50.546;12.292;2022-07-06T13:14:38;3.33;;;1.15;;
36457;SDS011;22480;50.546;12.292;2022-07-06T13:17:04;4.43;;;1.10;;
36457;SDS011;22480;50.546;12.292;2022-07-06T13:19:30;2.97;;;1.00;;
36457;SDS011;22480;50.546;12.292;2022-07-06T13:21:55;3.78;;;1.00;;
36457;SDS011;22480;50.546;12.292;2022-07-06T13:24:21;2.10;;;0.90;;
36457;SDS011;22480;50.546;12.292;2022-07-06T13:26:47;3.63;;;1.40;;
36457;SDS011;22480;50.546;12.292;2022-07-06T13:29:12;4.65;;;1.50;;
36457;SDS011;22480;50.546;12.292;2022-07-06T13:31:39;2.75;;;1.40;;
36457;SDS011;22480;50.546;12.292;2022-07-06T13:34:05;4.80;;;2.17;;
36457;SDS011;22480;50.546;12.292;2022-07-06T13:36:32;5.47;;;1.92;;
36457;SDS011;22480;50.546;12.292;2022-07-06T13:38:58;4.93;;;2.03;;
36457;SDS011;22480;50.546;12.292;2022-07-06T13:41:24;2.50;;;1.80;;
36457;SDS011;22480;50.546;12.292;2022-07-06T13:43:49;4.18;;;2.05;;
36457;SDS011;22480;50.546;12.292;2022-07-06T13:46:15;4.32;;;1.67;;
36457;SDS011;22480;50.546;12.292;2022-07-06T13:48:42;6.43;;;1.55;;
36457;SDS011;22480;50.546;12.292;2022-07-06T13:51:08;8.00;;;1.73;;
36457;SDS011;22480;50.546;12.292;2022-07-06T13:53:34;3.92;;;1.38;;
36457;SDS011;22480;50.546;12.292;2022-07-06T13:56:00;2.30;;;1.00;;
36457;SDS011;22480;50.546;12.292;2022-07-06T13:58:26;2.75;;;0.90;;
36457;SDS011;22480;50.546;12.292;2022-07-06T14:00:52;3.92;;;1.10;;
36457;SDS011;22480;50.546;12.292;2022-07-06T14:03:17;2.25;;;1.05;;
36457;SDS011;22480;50.546;12.292;2022-07-06T14:05:43;4.97;;;0.80;;
36457;SDS011;22480;50.546;12.292;2022-07-06T14:08:09;4.13;;;1.00;;
36457;SDS011;22480;50.546;12.292;2022-07-06T14:10:34;2.00;;;1.00;;
36457;SDS011;22480;50.546;12.292;2022-07-06T14:13:00;3.33;;;1.02;;
36457;SDS011;22480;50.546;12.292;2022-07-06T14:15:26;2.15;;;0.90;;
36457;SDS011;22480;50.546;12.292;2022-07-06T14:17:51;3.25;;;1.00;;
36457;SDS011;22480;50.546;12.292;2022-07-06T14:20:17;3.05;;;1.00;;
36457;SDS011;22480;50.546;12.292;2022-07-06T14:22:43;4.78;;;1.00;;
36457;SDS011;22480;50.546;12.292;2022-07-06T14:25:09;1.63;;;0.93;;
36457;SDS011;22480;50.546;12.292;2022-07-06T14:27:35;1.95;;;0.70;;
36457;SDS011;22480;50.546;12.292;2022-07-06T14:30:01;1.00;;;0.70;;
36457;SDS011;22480;50.546;12.292;2022-07-06T14:32:28;2.13;;;0.80;;
36457;SDS011;22480;50.546;12.292;2022-07-06T14:34:54;2.88;;;1.20;;
36457;SDS011;22480;50.546;12.292;2022-07-06T14:37:20;3.13;;;0.68;;
36457;SDS011;22480;50.546;12.292;2022-07-06T14:39:45;4.47;;;0.77;;
36457;SDS011;22480;50.546;12.292;2022-07-06T14:42:11;1.77;;;0.73;;
36457;SDS011;22480;50.546;12.292;2022-07-06T14:44:37;2.13;;;0.80;;
36457;SDS011;22480;50.546;12.292;2022-07-06T14:47:03;3.28;;;0.80;;
36457;SDS011;22480;50.546;12.292;2022-07-06T14:49:29;3.10;;;1.10;;
36457;SDS011;22480;50.546;12.292;2022-07-06T14:51:55;1.77;;;0.63;;